Time;durP1;ratioP1;P1;durP2;ratioP2;P2;SDS_P1;SDS_P2;PMS_P1;PMS_P2;Temp;Humidity;BMP_temperature;BMP_pressure;BME280_temperature;BME280_humidity;BME280_pressure;Samples;Min_cycle;Max_cycle;Signal;HPM_P1;HPM_P2
2022/04/05 00:01:25;;;;;;;6.70;2.22;;;6.90;99.90;;;;;;5057104;28;20101;-68
2022/04/05 00:03:52;;;;;;;9.88;2.40;;;6.90;99.90;;;;;;5073934;28;20057;-68
2022/04/05 00:06:19;;;;;;;9.85;1.90;;;6.90;99.90;;;;;;5056456;28;20056;-69
2022/04/05 00:08:46;;;;;;;7.45;2.00;;;6.90;99.90;;;;;;5074561;28;20488;-69
2022/04/05 00:11:13;;;;;;;10.65;2.05;;;6.90;99.90;;;;;;5056443;28;20431;-69
2022/04/05 00:13:39;;;;;;;11.10;2.45;;;6.90;99.90;;;;;;5056826;28;20549;-69
2022/04/05 00:16:08;;;;;;;6.57;1.90;;;6.80;99.90;;;;;;5056823;28;20044;-69
2022/04/05 00:18:35;;;;;;;7.45;2.22;;;6.80;99.90;;;;;;5056052;28;20049;-69
2022/04/05 00:21:02;;;;;;;6.60;1.63;;;6.90;99.90;;;;;;5074040;28;20048;-69
2022/04/05 00:23:29;;;;;;;12.38;2.53;;;6.80;99.90;;;;;;5055748;28;20480;-69
2022/04/05 00:25:55;;;;;;;6.22;1.77;;;6.80;99.90;;;;;;5073241;28;20056;-69
2022/04/05 00:28:22;;;;;;;10.23;2.08;;;6.80;99.90;;;;;;5085291;28;20052;-69
2022/04/05 00:30:49;;;;;;;6.95;1.88;;;6.80;99.90;;;;;;5075368;28;20047;-69
2022/04/05 00:33:18;;;;;;;11.60;2.17;;;6.80;99.90;;;;;;5076746;28;20056;-69
2022/04/05 00:35:45;;;;;;;9.90;2.58;;;6.80;99.90;;;;;;5076628;28;20043;-69
2022/04/05 00:38:12;;;;;;;6.05;2.03;;;6.80;99.90;;;;;;5093709;28;20063;-69
2022/04/05 00:40:38;;;;;;;13.40;2.63;;;6.70;99.90;;;;;;5076161;28;20059;-69
2022/04/05 00:43:06;;;;;;;9.32;1.90;;;6.70;99.90;;;;;;5076670;28;20051;-68
2022/04/05 00:45:33;;;;;;;10.82;2.38;;;6.70;99.90;;;;;;5075368;28;20511;-69
2022/04/05 00:48:01;;;;;;;9.70;2.58;;;6.70;99.90;;;;;;5094433;28;20458;-68
2022/04/05 00:50:32;;;;;;;10.15;2.22;;;6.70;99.90;;;;;;5075934;28;20112;-68
2022/04/05 00:53:02;;;;;;;6.53;2.15;;;6.70;99.90;;;;;;5071987;28;20496;-69
2022/04/05 00:55:29;;;;;;;8.50;2.25;;;6.70;99.90;;;;;;5073752;28;20044;-69
2022/04/05 00:57:58;;;;;;;9.43;1.92;;;6.70;99.90;;;;;;5055700;28;20101;-68
2022/04/05 01:00:25;;;;;;;7.25;3.10;;;6.70;99.90;;;;;;5062085;28;20472;-68
2022/04/05 01:02:54;;;;;;;10.38;2.17;;;6.70;99.90;;;;;;5076097;28;20047;-69
2022/04/05 01:05:24;;;;;;;11.32;2.40;;;6.70;99.90;;;;;;5093695;28;20451;-68
2022/04/05 01:07:55;;;;;;;6.28;2.13;;;6.70;99.90;;;;;;5075248;28;20071;-68
2022/04/05 01:10:22;;;;;;;10.77;2.38;;;6.70;99.90;;;;;;5075590;28;20052;-69
2022/04/05 01:12:49;;;;;;;9.30;2.17;;;6.70;99.90;;;;;;5093204;28;20048;-68
2022/04/05 01:15:16;;;;;;;13.05;2.25;;;6.70;99.90;;;;;;5093371;28;20044;-69
2022/04/05 01:17:43;;;;;;;8.25;2.53;;;6.70;99.90;;;;;;5093586;28;20108;-68
2022/04/05 01:20:11;;;;;;;10.02;2.92;;;6.70;99.90;;;;;;5074756;28;20090;-68
2022/04/05 01:22:49;;;;;;;10.48;2.33;;;6.70;99.90;;;;;;5092718;28;20055;-68
2022/04/05 01:25:19;;;;;;;10.70;2.85;;;6.70;99.90;;;;;;5071703;28;20041;-70
2022/04/05 01:27:46;;;;;;;14.77;3.05;;;6.60;99.90;;;;;;5072387;28;20049;-68
2022/04/05 01:30:13;;;;;;;13.02;2.38;;;6.70;99.90;;;;;;5055001;28;20048;-69
2022/04/05 01:32:40;;;;;;;11.65;2.42;;;6.70;99.90;;;;;;5055630;28;20113;-69
2022/04/05 01:35:09;;;;;;;12.23;2.47;;;6.70;99.90;;;;;;5054937;28;20484;-68
2022/04/05 01:37:36;;;;;;;14.50;2.85;;;6.70;99.90;;;;;;5072453;28;20056;-69
2022/04/05 01:40:04;;;;;;;11.38;2.80;;;6.70;99.90;;;;;;5075069;28;20515;-69
2022/04/05 01:42:34;;;;;;;10.82;2.38;;;6.70;99.90;;;;;;5071264;28;20102;-68
2022/04/05 01:45:01;;;;;;;9.85;2.08;;;6.70;99.90;;;;;;5091962;28;20055;-69
2022/04/05 01:47:28;;;;;;;7.25;2.30;;;6.80;99.90;;;;;;5075648;28;20124;-68
2022/04/05 01:49:55;;;;;;;9.52;2.40;;;6.70;99.90;;;;;;5074951;28;20462;-68
2022/04/05 01:52:22;;;;;;;13.23;2.78;;;6.70;99.90;;;;;;5075437;28;20125;-67
2022/04/05 01:54:49;;;;;;;14.70;2.63;;;6.70;99.90;;;;;;5092707;28;20089;-68
2022/04/05 01:57:16;;;;;;;13.75;2.63;;;6.70;99.90;;;;;;5093301;28;20044;-68
2022/04/05 01:59:44;;;;;;;10.85;2.30;;;6.70;99.90;;;;;;5074873;28;20052;-68
2022/04/05 02:02:12;;;;;;;8.65;1.95;;;6.60;99.90;;;;;;5092312;28;20118;-68
2022/04/05 02:04:41;;;;;;;12.80;2.63;;;6.70;99.90;;;;;;5093191;28;20077;-68
2022/04/05 02:07:13;;;;;;;10.95;2.88;;;6.70;99.90;;;;;;5074991;28;20127;-67
2022/04/05 02:09:40;;;;;;;11.25;3.13;;;6.70;99.90;;;;;;5092732;28;20048;-67
2022/04/05 02:12:09;;;;;;;8.98;2.13;;;6.70;99.90;;;;;;5074959;28;20122;-68
2022/04/05 02:14:36;;;;;;;12.68;2.63;;;6.70;99.90;;;;;;5075434;28;20056;-67
2022/04/05 02:17:05;;;;;;;10.10;2.45;;;6.70;99.90;;;;;;5092335;28;20065;-68
2022/04/05 02:19:32;;;;;;;10.55;1.85;;;6.80;99.90;;;;;;5092541;28;20051;-68
2022/04/05 02:21:58;;;;;;;10.75;3.20;;;6.70;99.90;;;;;;5075207;28;20113;-68
2022/04/05 02:24:25;;;;;;;14.10;2.30;;;6.70;99.90;;;;;;5074001;28;20055;-68
2022/04/05 02:26:52;;;;;;;14.70;2.30;;;6.80;99.90;;;;;;5075167;28;20446;-69
2022/04/05 02:29:20;;;;;;;17.05;2.53;;;6.80;99.90;;;;;;5074519;28;20106;-69
2022/04/05 02:31:47;;;;;;;10.57;2.63;;;6.80;99.90;;;;;;5074111;28;20070;-69
2022/04/05 02:34:15;;;;;;;17.70;4.45;;;6.70;99.90;;;;;;5094167;28;20047;-68
2022/04/05 02:36:42;;;;;;;16.10;3.13;;;6.70;99.90;;;;;;5079194;28;20044;-68
2022/04/05 02:42:39;;;;;;;12.60;2.45;;;6.70;99.90;;;;;;5078840;28;20047;-69
2022/04/05 02:45:07;;;;;;;13.45;3.20;;;6.60;99.90;;;;;;5097793;28;20079;-70
2022/04/05 02:47:33;;;;;;;7.40;2.28;;;6.60;99.90;;;;;;5076180;28;20059;-67
2022/04/05 02:50:01;;;;;;;12.25;3.72;;;6.60;99.90;;;;;;5059371;28;20470;-67
2022/04/05 02:52:29;;;;;;;21.75;3.70;;;6.60;99.90;;;;;;5058690;28;20083;-68
2022/04/05 02:54:55;;;;;;;26.38;4.35;;;6.60;99.90;;;;;;5077000;28;20127;-68
2022/04/05 02:57:22;;;;;;;15.18;3.72;;;6.50;99.90;;;;;;5076805;28;20102;-69
2022/04/05 02:59:49;;;;;;;19.50;3.38;;;6.50;99.90;;;;;;5058166;28;20573;-68
2022/04/05 03:02:16;;;;;;;15.95;2.97;;;6.50;99.90;;;;;;5090687;28;20079;-68
2022/04/05 03:04:42;;;;;;;16.20;2.60;;;6.50;99.90;;;;;;5096354;28;20052;-68
2022/04/05 03:07:11;;;;;;;13.75;2.88;;;6.50;99.90;;;;;;5095908;28;20125;-68
2022/04/05 03:09:37;;;;;;;13.30;2.63;;;6.50;99.90;;;;;;5078360;28;20055;-67
2022/04/05 03:12:05;;;;;;;19.83;3.17;;;6.50;99.90;;;;;;5096390;28;20048;-67
2022/04/05 03:14:31;;;;;;;15.85;3.53;;;6.50;99.90;;;;;;5078421;28;20138;-67
2022/04/05 03:16:58;;;;;;;13.13;2.72;;;6.50;99.90;;;;;;5095642;28;20499;-67
2022/04/05 03:19:25;;;;;;;13.32;2.92;;;6.50;99.90;;;;;;5095224;28;20135;-67
2022/04/05 03:21:52;;;;;;;12.75;2.55;;;6.50;99.90;;;;;;5078007;28;20131;-67
2022/04/05 03:24:20;;;;;;;13.13;2.97;;;6.50;99.90;;;;;;5096537;28;20135;-68
2022/04/05 03:26:46;;;;;;;13.93;3.67;;;6.40;99.90;;;;;;5095367;28;20580;-67
2022/04/05 03:29:13;;;;;;;14.20;3.45;;;6.40;99.90;;;;;;5095865;28;20575;-67
2022/04/05 03:31:40;;;;;;;11.57;2.78;;;6.40;99.90;;;;;;5077489;28;20072;-67
2022/04/05 03:34:07;;;;;;;11.77;2.67;;;6.40;99.90;;;;;;5077510;28;20135;-68
2022/04/05 03:36:33;;;;;;;17.95;2.80;;;6.30;99.90;;;;;;5077930;28;20075;-67
2022/04/05 03:39:01;;;;;;;14.57;2.95;;;6.30;99.90;;;;;;5095022;28;20067;-68
2022/04/05 03:41:29;;;;;;;14.15;3.47;;;6.30;99.90;;;;;;5077142;28;20162;-68
2022/04/05 03:43:56;;;;;;;21.40;3.85;;;6.30;99.90;;;;;;5095974;28;20048;-68
2022/04/05 03:46:23;;;;;;;19.00;3.45;;;6.30;99.90;;;;;;5076661;28;20090;-77
2022/04/05 03:48:49;;;;;;;19.35;3.47;;;6.30;99.90;;;;;;5057939;28;20508;-68
2022/04/05 03:51:16;;;;;;;15.57;3.55;;;6.30;99.90;;;;;;5085401;28;20561;-67
2022/04/05 03:53:43;;;;;;;19.00;3.38;;;6.30;99.90;;;;;;5088399;28;20062;-68
2022/04/05 03:56:10;;;;;;;19.13;3.00;;;6.30;99.90;;;;;;5087563;28;20044;-67
2022/04/05 03:58:38;;;;;;;22.42;4.45;;;6.30;99.90;;;;;;5086926;28;20499;-67
2022/04/05 04:01:05;;;;;;;15.25;3.20;;;6.30;99.90;;;;;;5065663;28;20066;-67
2022/04/05 04:03:31;;;;;;;24.55;5.18;;;6.30;99.90;;;;;;5068725;28;20476;-68
2022/04/05 04:05:59;;;;;;;11.52;3.30;;;6.30;99.90;;;;;;5073816;28;20056;-68
2022/04/05 04:08:26;;;;;;;21.05;3.40;;;6.30;99.90;;;;;;5086213;28;20492;-68
2022/04/05 04:10:53;;;;;;;14.15;3.17;;;6.50;99.90;;;;;;5085652;28;20056;-68
2022/04/05 04:13:21;;;;;;;11.40;3.53;;;6.30;99.90;;;;;;5068777;28;20135;-68
2022/04/05 04:15:49;;;;;;;17.33;3.65;;;6.30;99.90;;;;;;5071581;28;20921;-68
2022/04/05 04:18:16;;;;;;;11.38;2.92;;;6.30;99.90;;;;;;5068911;28;20083;-68
2022/04/05 04:20:43;;;;;;;22.73;3.50;;;6.20;99.90;;;;;;5084668;28;20446;-67
2022/04/05 04:23:10;;;;;;;19.05;3.50;;;6.20;99.90;;;;;;5088555;28;20415;-68
2022/04/05 04:25:38;;;;;;;13.43;3.35;;;6.30;99.90;;;;;;5088240;28;20048;-68
2022/04/05 04:28:05;;;;;;;7.90;2.92;;;6.20;99.90;;;;;;5086795;28;20872;-68
2022/04/05 04:30:32;;;;;;;21.23;3.35;;;6.20;99.90;;;;;;5070945;28;20052;-68
2022/04/05 04:33:01;;;;;;;14.43;3.33;;;6.20;99.90;;;;;;5085124;28;20056;-67
2022/04/05 04:35:29;;;;;;;20.52;3.80;;;6.20;99.90;;;;;;5067561;28;20131;-68
2022/04/05 04:37:56;;;;;;;10.63;2.70;;;6.20;99.90;;;;;;5064671;28;20460;-67
2022/04/05 04:40:23;;;;;;;21.73;3.13;;;6.10;99.90;;;;;;5055419;28;20052;-67
2022/04/05 04:42:50;;;;;;;18.60;2.70;;;6.10;99.90;;;;;;5055173;28;20072;-68
2022/04/05 04:45:17;;;;;;;17.10;3.63;;;6.10;99.90;;;;;;5056758;28;20131;-68
2022/04/05 04:47:44;;;;;;;15.35;3.05;;;6.10;99.90;;;;;;5057074;28;20127;-68
2022/04/05 04:50:12;;;;;;;14.43;2.90;;;6.10;99.90;;;;;;5071064;28;20135;-68
2022/04/05 04:52:39;;;;;;;15.27;3.25;;;6.10;99.90;;;;;;5072552;28;20184;-68
2022/04/05 04:55:07;;;;;;;14.18;3.38;;;6.00;99.90;;;;;;5075448;28;20431;-67
2022/04/05 04:57:34;;;;;;;18.70;4.00;;;6.10;99.90;;;;;;5054115;28;20053;-67
2022/04/05 05:00:00;;;;;;;8.98;2.45;;;6.10;99.90;;;;;;5072979;28;20139;-68
2022/04/05 05:02:27;;;;;;;18.17;4.35;;;6.10;99.90;;;;;;5061882;28;20138;-65
2022/04/05 05:04:54;;;;;;;10.75;2.97;;;6.10;99.90;;;;;;5076248;28;20131;-68
2022/04/05 05:07:22;;;;;;;14.52;2.40;;;6.10;99.90;;;;;;5059514;28;20051;-69
2022/04/05 05:09:49;;;;;;;12.65;2.92;;;6.10;99.90;;;;;;5074491;28;20079;-68
2022/04/05 05:12:16;;;;;;;16.40;3.13;;;6.10;99.90;;;;;;5068718;28;20044;-68
2022/04/05 05:14:42;;;;;;;13.07;2.72;;;6.10;99.90;;;;;;5068789;28;20053;-68
2022/04/05 05:17:09;;;;;;;18.85;3.25;;;6.10;99.90;;;;;;5069470;28;20044;-68
2022/04/05 05:19:36;;;;;;;21.75;3.65;;;6.10;99.90;;;;;;5066508;28;20066;-69
2022/04/05 05:22:03;;;;;;;11.15;3.00;;;6.20;99.90;;;;;;5066171;28;20045;-67
2022/04/05 05:24:31;;;;;;;10.68;2.63;;;6.20;99.90;;;;;;5085641;28;20044;-67
2022/04/05 05:26:58;;;;;;;10.73;2.40;;;6.20;99.90;;;;;;5066395;28;20079;-69
2022/04/05 05:29:25;;;;;;;16.90;3.03;;;6.20;99.90;;;;;;5091828;28;20052;-69
2022/04/05 05:31:52;;;;;;;13.05;2.88;;;6.20;99.90;;;;;;5087035;28;20060;-69
2022/04/05 05:34:22;;;;;;;14.55;3.17;;;6.30;99.90;;;;;;5082936;28;20043;-65
2022/04/05 05:36:49;;;;;;;11.15;3.22;;;6.30;99.90;;;;;;5083922;28;20043;-67
2022/04/05 05:39:16;;;;;;;10.63;2.28;;;6.30;99.90;;;;;;5065230;28;20048;-68
2022/04/05 05:41:47;;;;;;;12.85;3.03;;;6.40;99.90;;;;;;5065387;28;20048;-67
2022/04/05 05:44:13;;;;;;;;;;;6.40;99.90;;;;;;5083397;28;20074;-67
2022/04/05 05:46:40;;;;;;;12.57;2.95;;;6.50;99.90;;;;;;5086929;28;20279;-66
2022/04/05 05:49:07;;;;;;;14.18;3.13;;;6.50;99.90;;;;;;5065477;28;20131;-67
2022/04/05 05:51:34;;;;;;;14.93;3.17;;;6.50;99.90;;;;;;5084273;28;20189;-67
2022/04/05 05:54:00;;;;;;;13.43;3.45;;;6.50;99.90;;;;;;5065358;28;20055;-66
2022/04/05 05:56:27;;;;;;;9.98;3.03;;;6.50;99.90;;;;;;5069055;28;20127;-71
2022/04/05 05:58:55;;;;;;;14.48;3.08;;;6.60;99.90;;;;;;5065577;28;20507;-67
2022/04/05 06:01:24;;;;;;;12.85;2.63;;;6.60;99.90;;;;;;5083035;28;20579;-69
2022/04/05 06:03:50;;;;;;;15.95;3.13;;;6.60;99.90;;;;;;5071730;28;20052;-70
2022/04/05 06:06:17;;;;;;;10.18;2.75;;;6.70;99.90;;;;;;5079357;28;20054;-70
2022/04/05 06:08:44;;;;;;;7.38;2.25;;;6.70;99.90;;;;;;5075535;28;20488;-70
2022/04/05 06:11:12;;;;;;;8.80;2.60;;;6.70;99.90;;;;;;5095355;28;20053;-69
2022/04/05 06:13:39;;;;;;;11.43;2.70;;;6.70;99.90;;;;;;5078776;28;20487;-70
2022/04/05 06:16:08;;;;;;;14.25;3.05;;;6.80;99.90;;;;;;5074253;28;20138;-70
2022/04/05 06:18:34;;;;;;;10.52;2.70;;;6.80;99.90;;;;;;5071311;28;20049;-71
2022/04/05 06:21:01;;;;;;;14.48;3.13;;;6.90;99.90;;;;;;5054615;28;20061;-70
2022/04/05 06:23:28;;;;;;;9.35;3.03;;;6.90;99.90;;;;;;5085922;28;20476;-71
2022/04/05 06:25:55;;;;;;;9.35;2.65;;;6.90;99.90;;;;;;5093047;28;20062;-69
2022/04/05 06:28:22;;;;;;;13.98;2.75;;;7.00;99.90;;;;;;5067240;28;20063;-68
2022/04/05 06:30:48;;;;;;;13.80;2.38;;;7.00;99.90;;;;;;5065333;28;20048;-68
2022/04/05 06:33:19;;;;;;;11.35;2.50;;;7.10;99.90;;;;;;5067291;28;20132;-68
2022/04/05 06:35:48;;;;;;;15.90;3.15;;;7.10;99.90;;;;;;5068913;28;20056;-71
2022/04/05 06:38:15;;;;;;;14.40;3.20;;;7.20;99.90;;;;;;5071090;28;20508;-70
2022/04/05 06:40:43;;;;;;;10.98;2.30;;;7.20;99.90;;;;;;5091131;28;20139;-71
2022/04/05 06:43:10;;;;;;;12.90;3.35;;;7.20;99.90;;;;;;5091294;28;20059;-71
2022/04/05 06:45:37;;;;;;;15.93;3.78;;;7.20;99.90;;;;;;5090078;28;20058;-68
2022/04/05 06:48:06;;;;;;;10.95;3.20;;;7.30;99.90;;;;;;5092103;28;20131;-71
2022/04/05 06:50:34;;;;;;;10.82;2.53;;;7.40;99.90;;;;;;5090398;28;20059;-70
2022/04/05 06:53:01;;;;;;;13.55;2.63;;;7.50;99.90;;;;;;5071424;28;20479;-70
2022/04/05 06:55:29;;;;;;;13.00;3.20;;;7.60;99.90;;;;;;5070835;28;20131;-71
2022/04/05 06:57:56;;;;;;;10.40;2.58;;;7.80;99.90;;;;;;5071350;28;20389;-71
2022/04/05 07:00:24;;;;;;;11.50;2.88;;;7.90;99.90;;;;;;5070120;28;20049;-71
2022/04/05 07:02:52;;;;;;;11.95;2.30;;;8.10;99.90;;;;;;5072066;28;20045;-71
2022/04/05 07:05:19;;;;;;;7.43;2.58;;;8.10;99.90;;;;;;5071343;28;20048;-71
2022/04/05 07:07:47;;;;;;;9.45;2.28;;;8.20;99.90;;;;;;5071846;28;20084;-71
2022/04/05 07:10:16;;;;;;;10.55;2.92;;;8.20;99.90;;;;;;5072037;28;20044;-71
2022/04/05 07:12:44;;;;;;;11.88;2.78;;;8.20;99.90;;;;;;5072452;28;20488;-68
2022/04/05 07:15:11;;;;;;;8.40;2.22;;;8.30;99.90;;;;;;5086919;28;20045;-68
2022/04/05 07:17:39;;;;;;;10.32;2.47;;;8.30;99.90;;;;;;5070624;28;20083;-68
2022/04/05 07:20:08;;;;;;;9.57;2.75;;;8.30;99.90;;;;;;5070848;28;20403;-68
2022/04/05 07:22:35;;;;;;;6.70;2.13;;;8.30;99.90;;;;;;5075486;28;20838;-68
2022/04/05 07:25:04;;;;;;;13.02;3.03;;;8.10;99.90;;;;;;5075450;28;20052;-70
2022/04/05 07:27:31;;;;;;;8.35;2.25;;;8.10;99.90;;;;;;5076127;28;20128;-69
2022/04/05 07:29:57;;;;;;;7.80;2.45;;;8.10;99.90;;;;;;5077224;28;20131;-69
2022/04/05 07:32:24;;;;;;;9.88;2.30;;;8.10;99.90;;;;;;5077387;28;20066;-69
2022/04/05 07:34:51;;;;;;;11.52;2.88;;;8.10;99.90;;;;;;5076571;28;20052;-69
2022/04/05 07:37:18;;;;;;;8.35;2.13;;;8.20;99.90;;;;;;5095346;28;20462;-69
2022/04/05 07:39:45;;;;;;;7.93;2.50;;;8.20;99.90;;;;;;5073786;28;20353;-69
2022/04/05 07:42:13;;;;;;;11.13;2.42;;;8.20;99.90;;;;;;5075024;28;20101;-69
2022/04/05 07:44:40;;;;;;;10.75;2.42;;;8.10;99.90;;;;;;5057399;28;20536;-70
2022/04/05 07:47:06;;;;;;;10.18;2.33;;;8.10;99.90;;;;;;5056743;28;20488;-69
2022/04/05 07:49:33;;;;;;;10.98;2.70;;;8.10;99.90;;;;;;5082506;28;20122;-69
2022/04/05 07:52:00;;;;;;;11.27;2.40;;;8.10;99.90;;;;;;5077100;28;20131;-69
2022/04/05 07:54:27;;;;;;;15.38;2.75;;;8.10;99.90;;;;;;5076670;28;20052;-69
2022/04/05 07:56:53;;;;;;;12.98;2.88;;;8.10;99.90;;;;;;5077059;28;20616;-69
2022/04/05 07:59:22;;;;;;;9.30;2.97;;;8.10;99.90;;;;;;5094686;28;20571;-69
2022/04/05 08:01:49;;;;;;;9.60;2.45;;;8.10;99.90;;;;;;5076406;28;20491;-69
2022/04/05 08:04:16;;;;;;;8.18;2.67;;;8.20;99.90;;;;;;5076488;28;20056;-69
2022/04/05 08:06:43;;;;;;;10.80;2.47;;;8.20;99.90;;;;;;5095167;28;20075;-69
2022/04/05 08:09:09;;;;;;;9.73;2.65;;;8.20;99.90;;;;;;5075869;28;20134;-69
2022/04/05 08:11:36;;;;;;;9.18;2.50;;;8.30;99.90;;;;;;5076643;28;20138;-69
2022/04/05 08:14:03;;;;;;;9.13;2.95;;;8.30;99.90;;;;;;5107697;28;20143;-70
2022/04/05 08:16:31;;;;;;;8.05;2.55;;;8.30;99.90;;;;;;5095217;28;20075;-69
2022/04/05 08:18:58;;;;;;;11.43;2.85;;;8.40;99.90;;;;;;5076202;28;20131;-70
2022/04/05 08:21:25;;;;;;;22.25;3.08;;;8.50;99.90;;;;;;5076695;28;20101;-70
2022/04/05 08:23:52;;;;;;;13.05;2.83;;;8.50;99.90;;;;;;5093904;28;20444;-71
2022/04/05 08:26:19;;;;;;;5.90;2.22;;;8.60;99.90;;;;;;5076849;28;20136;-70
2022/04/05 08:28:46;;;;;;;12.50;2.35;;;8.60;99.90;;;;;;5093045;28;20056;-70
2022/04/05 08:31:13;;;;;;;14.85;2.70;;;8.70;99.90;;;;;;5075047;28;20044;-70
2022/04/05 08:33:41;;;;;;;7.82;2.50;;;8.50;99.90;;;;;;5075917;28;20090;-70
2022/04/05 08:36:08;;;;;;;14.40;2.92;;;8.50;99.90;;;;;;5093846;28;20052;-69
2022/04/05 08:38:35;;;;;;;10.80;2.47;;;8.50;99.90;;;;;;5094267;28;20058;-69
2022/04/05 08:41:04;;;;;;;6.32;2.70;;;8.50;99.90;;;;;;5076334;28;20051;-69
2022/04/05 08:43:31;;;;;;;9.23;2.70;;;8.60;99.90;;;;;;5093642;28;20536;-69
2022/04/05 08:46:00;;;;;;;6.72;2.58;;;8.60;99.90;;;;;;5093625;28;20080;-69
2022/04/05 08:48:29;;;;;;;9.63;3.05;;;8.60;99.90;;;;;;5093667;28;20539;-69
2022/04/05 08:50:59;;;;;;;11.02;3.03;;;8.70;99.90;;;;;;5075173;28;20090;-69
2022/04/05 08:53:28;;;;;;;14.20;2.80;;;8.60;99.90;;;;;;5093865;28;20131;-70
2022/04/05 08:55:55;;;;;;;6.97;2.17;;;8.70;99.90;;;;;;5093782;28;20143;-69
2022/04/05 08:58:21;;;;;;;13.23;2.33;;;8.90;99.90;;;;;;5075184;28;20128;-66
2022/04/05 09:00:48;;;;;;;9.93;2.80;;;9.50;99.90;;;;;;5071946;28;20136;-68
2022/04/05 09:03:15;;;;;;;6.60;2.00;;;10.00;99.90;;;;;;5072648;28;20143;-70
2022/04/05 09:05:44;;;;;;;7.35;1.60;;;10.40;99.90;;;;;;5079030;28;20130;-68
2022/04/05 09:08:20;;;;;;;4.32;1.63;;;10.40;99.90;;;;;;5075258;28;20047;-68
2022/04/05 09:10:49;;;;;;;6.03;1.80;;;10.20;99.90;;;;;;5093148;28;20141;-67
2022/04/05 09:13:20;;;;;;;4.93;1.40;;;10.20;99.90;;;;;;5058773;28;20044;-68
2022/04/05 09:15:50;;;;;;;5.32;1.60;;;10.20;99.90;;;;;;5072191;28;20057;-68
2022/04/05 09:18:34;;;;;;;4.18;1.50;;;10.10;99.90;;;;;;5062568;28;20446;-68
2022/04/05 09:21:01;;;;;;;2.47;1.35;;;9.90;99.90;;;;;;5066654;28;20102;-68
2022/04/05 09:23:33;;;;;;;4.47;1.85;;;9.80;99.90;;;;;;5085095;28;20055;-69
2022/04/05 09:26:01;;;;;;;5.72;1.70;;;9.90;99.90;;;;;;5067016;28;20508;-69
2022/04/05 09:28:30;;;;;;;6.68;1.60;;;9.90;99.90;;;;;;5058913;28;20051;-68
2022/04/05 09:31:02;;;;;;;4.25;1.70;;;9.90;99.90;;;;;;5052344;28;20123;-69
2022/04/05 09:33:30;;;;;;;8.52;2.20;;;10.00;99.90;;;;;;5055942;28;20060;-69
2022/04/05 09:36:08;;;;;;;4.57;1.88;;;10.10;99.90;;;;;;5053789;28;20127;-69
2022/04/05 09:38:37;;;;;;;5.15;2.00;;;10.20;99.90;;;;;;5054866;28;20064;-69
2022/04/05 09:41:16;;;;;;;6.07;1.73;;;10.00;99.90;;;;;;5068243;28;20078;-69
2022/04/05 09:43:58;;;;;;;7.70;1.98;;;10.00;99.90;;;;;;5055908;28;20579;-69
2022/04/05 09:46:26;;;;;;;7.20;1.60;;;9.70;99.90;;;;;;5055455;28;20110;-69
2022/04/05 09:49:13;;;;;;;9.40;2.03;;;9.70;99.90;;;;;;5061910;28;20048;-68
2022/04/05 09:51:42;;;;;;;7.32;2.33;;;9.60;99.90;;;;;;5059848;28;20136;-68
2022/04/05 09:54:19;;;;;;;4.72;2.03;;;9.50;99.90;;;;;;5056121;28;20539;-70
2022/04/05 09:56:46;;;;;;;6.00;2.00;;;9.40;99.90;;;;;;5058904;28;20398;-70
2022/04/05 09:59:18;;;;;;;6.25;2.08;;;9.40;99.90;;;;;;5063281;28;20044;-70
2022/04/05 10:01:46;;;;;;;6.10;2.40;;;9.40;99.90;;;;;;5061662;28;20118;-68
2022/04/05 10:04:15;;;;;;;6.65;2.30;;;9.50;99.90;;;;;;5058412;28;20143;-67
2022/04/05 10:06:44;;;;;;;7.35;2.40;;;9.50;99.90;;;;;;5061335;28;20052;-68
2022/04/05 10:09:13;;;;;;;5.57;2.15;;;9.50;99.90;;;;;;5049536;28;20045;-68
2022/04/05 10:11:41;;;;;;;5.53;1.67;;;9.70;99.90;;;;;;5050231;28;20136;-68
2022/04/05 10:14:10;;;;;;;3.83;1.98;;;9.70;99.90;;;;;;5059490;28;20079;-68
2022/04/05 10:16:37;;;;;;;6.93;1.98;;;9.70;99.90;;;;;;5050920;28;20133;-70
2022/04/05 10:19:06;;;;;;;3.97;1.33;;;9.60;99.90;;;;;;5066458;28;20513;-68
2022/04/05 10:21:35;;;;;;;4.80;1.50;;;9.60;99.90;;;;;;5065570;28;20084;-69
2022/04/05 10:24:04;;;;;;;6.27;2.23;;;9.50;99.90;;;;;;5051467;28;20056;-68
2022/04/05 10:26:35;;;;;;;3.80;2.10;;;9.60;99.90;;;;;;5051023;28;20335;-68
2022/04/05 10:29:05;;;;;;;3.33;1.60;;;9.60;99.90;;;;;;5068859;28;20150;-70
2022/04/05 10:31:45;;;;;;;6.72;1.63;;;9.50;99.90;;;;;;5057609;28;20052;-69
2022/04/05 10:34:21;;;;;;;5.43;1.48;;;9.50;99.90;;;;;;5057258;28;20067;-68
2022/04/05 10:37:08;;;;;;;4.10;1.75;;;9.60;99.90;;;;;;5069192;28;20056;-69
2022/04/05 10:39:36;;;;;;;2.35;1.30;;;9.70;99.90;;;;;;5091648;28;20305;-69
2022/04/05 10:42:23;;;;;;;3.13;1.40;;;9.80;99.90;;;;;;5073719;28;20091;-69
2022/04/05 10:44:53;;;;;;;3.35;1.20;;;9.90;99.90;;;;;;5072087;28;20052;-68
2022/04/05 10:47:20;;;;;;;3.95;1.38;;;9.90;99.90;;;;;;5073996;28;20048;-68
2022/04/05 10:49:48;;;;;;;2.28;1.25;;;10.00;99.90;;;;;;5073576;28;20078;-68
2022/04/05 10:52:18;;;;;;;4.30;1.85;;;10.10;99.90;;;;;;5092332;28;20127;-68
2022/04/05 10:54:47;;;;;;;3.60;1.65;;;10.20;99.90;;;;;;5092929;28;20066;-68
2022/04/05 10:57:21;;;;;;;2.70;1.27;;;10.30;99.90;;;;;;5077403;28;20052;-68
2022/04/05 10:59:50;;;;;;;3.00;1.38;;;10.30;99.90;;;;;;5078399;28;20086;-68
2022/04/05 11:02:32;;;;;;;2.15;1.38;;;10.50;99.90;;;;;;5074812;28;20049;-67
2022/04/05 11:05:31;;;;;;;3.40;1.23;;;10.50;99.90;;;;;;5057398;28;20110;-68
2022/04/05 11:08:03;;;;;;;3.88;1.10;;;10.40;99.90;;;;;;5069733;28;20127;-68
2022/04/05 11:10:32;;;;;;;4.55;1.70;;;10.50;99.90;;;;;;5077728;28;20135;-68
2022/04/05 11:13:09;;;;;;;2.92;1.40;;;10.40;99.90;;;;;;5082765;28;20047;-68
2022/04/05 11:15:40;;;;;;;2.22;1.10;;;10.50;99.90;;;;;;5097839;28;20134;-68
2022/04/05 11:18:08;;;;;;;4.00;1.30;;;10.60;99.90;;;;;;5115987;28;20047;-69
2022/04/05 11:20:36;;;;;;;1.55;0.90;;;10.70;99.90;;;;;;5097784;28;20134;-68
2022/04/05 11:23:03;;;;;;;2.28;1.10;;;10.70;99.90;;;;;;5098065;28;20139;-68
2022/04/05 11:25:31;;;;;;;1.80;1.10;;;10.90;99.90;;;;;;5097334;28;20047;-69
2022/04/05 11:28:12;;;;;;;4.55;1.77;;;11.20;99.90;;;;;;5103539;28;20133;-69
2022/04/05 11:30:45;;;;;;;3.20;1.10;;;11.40;99.90;;;;;;5077356;28;20048;-69
2022/04/05 11:33:35;;;;;;;1.88;1.05;;;11.50;99.90;;;;;;5077122;28;20468;-69
2022/04/05 11:36:04;;;;;;;1.50;1.00;;;11.40;99.90;;;;;;5095615;28;20135;-69
2022/04/05 11:38:33;;;;;;;3.53;0.90;;;11.30;99.90;;;;;;5074033;28;20049;-69
2022/04/05 11:41:03;;;;;;;2.10;0.80;;;11.10;99.90;;;;;;5075143;28;20123;-70
2022/04/05 11:43:34;;;;;;;2.20;1.05;;;11.20;99.90;;;;;;5061815;28;20127;-70
2022/04/05 11:46:04;;;;;;;1.90;1.00;;;11.20;99.90;;;;;;5094637;28;20060;-69
2022/04/05 11:48:31;;;;;;;1.55;0.85;;;11.30;99.90;;;;;;5077020;28;20135;-69
2022/04/05 11:51:01;;;;;;;1.70;1.00;;;11.40;99.90;;;;;;5077371;28;20054;-69
2022/04/05 11:53:31;;;;;;;2.00;1.10;;;11.30;99.90;;;;;;5072431;28;20213;-70
2022/04/05 11:56:22;;;;;;;1.65;1.10;;;11.40;99.90;;;;;;5076682;28;20378;-69
2022/04/05 11:58:52;;;;;;;1.77;1.10;;;11.50;99.90;;;;;;5075323;28;20115;-69
2022/04/05 12:01:24;;;;;;;1.52;0.98;;;11.30;99.90;;;;;;5075319;28;20411;-69
2022/04/05 12:03:54;;;;;;;2.22;1.20;;;11.40;99.90;;;;;;5076988;28;20055;-69
2022/04/05 12:06:23;;;;;;;2.25;1.42;;;11.40;99.90;;;;;;5076701;28;20101;-69
2022/04/05 12:08:51;;;;;;;2.08;1.10;;;11.40;99.90;;;;;;5075467;28;20094;-70
2022/04/05 12:11:20;;;;;;;2.35;1.10;;;11.50;99.90;;;;;;5094692;28;20052;-70
2022/04/05 12:13:58;;;;;;;2.60;1.05;;;11.50;99.90;;;;;;5087847;28;20051;-69
2022/04/05 12:16:26;;;;;;;2.22;1.45;;;11.60;99.90;;;;;;5096964;28;20138;-69
2022/04/05 12:18:53;;;;;;;1.95;1.17;;;11.80;99.90;;;;;;5114949;28;20069;-70
2022/04/05 12:21:22;;;;;;;2.65;1.42;;;11.90;99.90;;;;;;5099276;28;20055;-69
2022/04/05 12:23:50;;;;;;;4.57;1.50;;;12.00;99.90;;;;;;5076326;28;20105;-69
2022/04/05 12:26:19;;;;;;;1.92;1.10;;;12.00;99.90;;;;;;5094199;28;20052;-70
2022/04/05 12:28:50;;;;;;;2.75;1.48;;;12.00;99.90;;;;;;5093277;28;20056;-69
2022/04/05 12:31:21;;;;;;;2.47;1.23;;;12.00;99.90;;;;;;5076541;28;20056;-69
2022/04/05 12:33:56;;;;;;;2.58;1.30;;;12.20;99.90;;;;;;5094310;28;20151;-69
2022/04/05 12:36:24;;;;;;;1.73;1.10;;;12.30;99.90;;;;;;5075541;28;20062;-69
2022/04/05 12:38:51;;;;;;;2.33;1.50;;;12.70;99.90;;;;;;5094371;28;20480;-69
2022/04/05 12:41:19;;;;;;;2.30;1.52;;;12.70;99.90;;;;;;5075927;28;20062;-69
2022/04/05 12:44:03;;;;;;;2.28;1.40;;;12.50;99.90;;;;;;5072065;28;20501;-69
2022/04/05 12:46:39;;;;;;;2.45;1.70;;;12.20;99.90;;;;;;5074129;28;20454;-69
2022/04/05 12:49:34;;;;;;;2.58;1.50;;;12.10;99.90;;;;;;5073221;28;20518;-69
2022/04/05 12:52:09;;;;;;;2.78;1.73;;;12.00;99.90;;;;;;5011380;28;20052;-68
2022/04/05 12:54:39;;;;;;;2.75;1.83;;;11.80;99.90;;;;;;5091503;28;20504;-69
2022/04/05 12:57:29;;;;;;;2.90;1.70;;;11.70;99.90;;;;;;5072822;28;20055;-69
2022/04/05 13:00:10;;;;;;;3.30;1.95;;;11.60;99.90;;;;;;5093897;28;20051;-69
2022/04/05 13:02:41;;;;;;;3.08;1.98;;;11.50;99.90;;;;;;5075582;28;20048;-68